createdAt,value
2019-02-25T00:01:22.033Z,104231.00
2019-02-25T00:02:57.131Z,104230.00
2019-02-25T00:04:32.238Z,104233.00
2019-02-25T00:06:07.356Z,104236.00
2019-02-25T00:07:42.456Z,104243.00
2019-02-25T00:09:18.634Z,104232.00
2019-02-25T00:10:53.745Z,104230.00
2019-02-25T00:12:29.966Z,104233.00
2019-02-25T00:14:05.062Z,104234.00
2019-02-25T00:15:40.167Z,104222.00
2019-02-25T00:17:15.264Z,104221.00
2019-02-25T00:18:50.367Z,104221.00
2019-02-25T00:20:25.487Z,104225.00
2019-02-25T00:22:00.912Z,104216.00
2019-02-25T00:23:36.024Z,104224.00
2019-02-25T00:25:14.400Z,104225.00
2019-02-25T00:26:49.500Z,104227.00
2019-02-25T00:28:24.918Z,104232.00
2019-02-25T00:30:00.315Z,104232.00
2019-02-25T00:31:35.512Z,104221.00
2019-02-25T00:33:10.607Z,104215.00
2019-02-25T00:34:45.705Z,104221.00
2019-02-25T00:36:20.820Z,104223.00
2019-02-25T00:37:56.203Z,104214.00
2019-02-25T00:39:31.572Z,104214.00
2019-02-25T00:41:06.687Z,104223.00
2019-02-25T00:42:42.754Z,104216.00
2019-02-25T00:44:18.109Z,104199.00
2019-02-25T00:45:53.220Z,104210.00
2019-02-25T00:47:28.325Z,104216.00
2019-02-25T00:49:03.437Z,104197.00
2019-02-25T00:50:38.546Z,104204.00
2019-02-25T00:52:13.656Z,104216.00
2019-02-25T00:53:49.833Z,104213.00
2019-02-25T00:55:24.961Z,104218.00
2019-02-25T00:57:00.058Z,104217.00
2019-02-25T00:58:35.163Z,104215.00
2019-02-25T01:00:22.137Z,104219.00
2019-02-25T01:01:57.244Z,104209.00
2019-02-25T01:03:32.344Z,104212.00
2019-02-25T01:05:08.352Z,104210.00
2019-02-25T01:06:43.461Z,104214.00
2019-02-25T01:08:18.568Z,104213.00
2019-02-25T01:09:53.665Z,104202.00
2019-02-25T01:11:28.779Z,104209.00
2019-02-25T01:13:04.172Z,104205.00
2019-02-25T01:14:39.280Z,104208.00
2019-02-25T01:16:14.589Z,104207.00
2019-02-25T01:17:49.674Z,104200.00
2019-02-25T01:19:24.787Z,104199.00
2019-02-25T01:20:59.896Z,104197.00
2019-02-25T01:22:34.988Z,104201.00
2019-02-25T01:24:10.093Z,104198.00
2019-02-25T01:25:45.570Z,104185.00
2019-02-25T01:27:20.667Z,104187.00
2019-02-25T01:28:55.769Z,104187.00
2019-02-25T01:30:30.855Z,104186.00
2019-02-25T01:32:05.969Z,104187.00
2019-02-25T01:33:41.063Z,104177.00
2019-02-25T01:35:16.459Z,104183.00
2019-02-25T01:36:51.531Z,104186.00
2019-02-25T01:38:26.638Z,104187.00
2019-02-25T01:40:01.746Z,104182.00
2019-02-25T01:41:36.871Z,104178.00
2019-02-25T01:43:11.969Z,104178.00
2019-02-25T01:44:47.074Z,104173.00
2019-02-25T01:46:22.254Z,104163.00
2019-02-25T01:47:57.354Z,104163.00
2019-02-25T01:49:32.457Z,104154.00
2019-02-25T01:51:07.561Z,104168.00
2019-02-25T01:52:42.656Z,104161.00
2019-02-25T01:54:17.760Z,104172.00
2019-02-25T01:55:52.856Z,104169.00
2019-02-25T01:57:28.267Z,104181.00
2019-02-25T01:59:03.369Z,104177.00
2019-02-25T02:00:38.476Z,104170.00
2019-02-25T02:02:13.590Z,104166.00
2019-02-25T02:03:48.688Z,104174.00
2019-02-25T02:05:24.636Z,104164.00
2019-02-25T02:07:00.140Z,104171.00
2019-02-25T02:08:35.189Z,104165.00
2019-02-25T02:10:14.067Z,104177.00
2019-02-25T02:11:49.170Z,104172.00
2019-02-25T02:13:24.276Z,104172.00
2019-02-25T02:14:59.631Z,104179.00
2019-02-25T02:16:35.869Z,104165.00
2019-02-25T02:18:10.971Z,104166.00
2019-02-25T02:19:46.068Z,104171.00
2019-02-25T02:21:21.188Z,104177.00
2019-02-25T02:22:56.286Z,104171.00
2019-02-25T02:24:31.390Z,104161.00
2019-02-25T02:26:06.508Z,104163.00
2019-02-25T02:27:41.609Z,104164.00
2019-02-25T02:29:16.711Z,104162.00
2019-02-25T02:30:52.782Z,104162.00
2019-02-25T02:32:27.894Z,104166.00
2019-02-25T02:34:02.991Z,104167.00
2019-02-25T02:35:38.185Z,104161.00
2019-02-25T02:37:13.289Z,104165.00
2019-02-25T02:38:48.403Z,104161.00
2019-02-25T02:40:23.541Z,104160.00
2019-02-25T02:42:20.141Z,104166.00
2019-02-25T02:43:55.232Z,104170.00
2019-02-25T02:45:59.078Z,104177.00
2019-02-25T02:47:42.346Z,104169.00
2019-02-25T02:49:17.448Z,104179.00
2019-02-25T02:50:52.548Z,104174.00
2019-02-25T02:52:28.010Z,104179.00
2019-02-25T02:54:03.117Z,104186.00
2019-02-25T02:55:38.219Z,104183.00
2019-02-25T02:57:13.324Z,104195.00
2019-02-25T02:58:48.418Z,104199.00
2019-02-25T03:00:23.521Z,104194.00
2019-02-25T03:01:58.629Z,104191.00
2019-02-25T03:03:33.735Z,104194.00
2019-02-25T03:05:12.255Z,104189.00
2019-02-25T03:06:47.371Z,104182.00
2019-02-25T03:08:22.473Z,104179.00
2019-02-25T03:09:58.903Z,104182.00
2019-02-25T03:11:34.031Z,104186.00
2019-02-25T03:13:09.130Z,104164.00
2019-02-25T03:14:44.241Z,104177.00
2019-02-25T03:16:19.608Z,104165.00
2019-02-25T03:17:54.726Z,104158.00
2019-02-25T03:19:30.093Z,104165.00
2019-02-25T03:21:06.510Z,104163.00
2019-02-25T03:22:41.622Z,104173.00
2019-02-25T03:24:17.057Z,104162.00
2019-02-25T03:25:52.163Z,104170.00
2019-02-25T03:27:27.331Z,104164.00
2019-02-25T03:29:02.439Z,104165.00
2019-02-25T03:30:37.806Z,104157.00
2019-02-25T03:32:12.921Z,104160.00
2019-02-25T03:33:48.020Z,104153.00
2019-02-25T03:35:23.124Z,104160.00
2019-02-25T03:36:58.238Z,104149.00
2019-02-25T03:38:33.340Z,104164.00
2019-02-25T03:40:12.463Z,104155.00
2019-02-25T03:41:47.823Z,104173.00
2019-02-25T03:43:22.938Z,104163.00
2019-02-25T03:44:58.049Z,104150.00
2019-02-25T03:46:33.149Z,104149.00
2019-02-25T03:48:08.264Z,104153.00
2019-02-25T03:49:43.367Z,104151.00
2019-02-25T03:51:18.471Z,104151.00
2019-02-25T03:52:53.582Z,104161.00
2019-02-25T03:54:28.686Z,104158.00
2019-02-25T03:56:03.786Z,104151.00
2019-02-25T03:57:38.897Z,104152.00
2019-02-25T03:59:14.248Z,104152.00
2019-02-25T04:00:49.350Z,104149.00
2019-02-25T04:02:24.586Z,104148.00
2019-02-25T04:03:59.689Z,104143.00
2019-02-25T04:05:34.792Z,104139.00
2019-02-25T04:07:11.019Z,104143.00
2019-02-25T04:08:46.108Z,104141.00
2019-02-25T04:10:21.204Z,104145.00
2019-02-25T04:11:56.305Z,104146.00
2019-02-25T04:13:31.412Z,104141.00
2019-02-25T04:15:17.966Z,104147.00
2019-02-25T04:16:53.067Z,104141.00
2019-02-25T04:18:28.179Z,104142.00
2019-02-25T04:20:03.850Z,104154.00
2019-02-25T04:21:38.956Z,104148.00
2019-02-25T04:23:14.072Z,104148.00
2019-02-25T04:24:49.175Z,104149.00
2019-02-25T04:26:24.281Z,104144.00
2019-02-25T04:27:59.392Z,104142.00
2019-02-25T04:29:34.487Z,104152.00
2019-02-25T04:31:09.595Z,104141.00
2019-02-25T04:32:44.706Z,104145.00
2019-02-25T04:34:19.813Z,104141.00
2019-02-25T04:35:54.925Z,104138.00
2019-02-25T04:37:30.334Z,104129.00
2019-02-25T04:39:06.301Z,104139.00
2019-02-25T04:40:41.404Z,104145.00
2019-02-25T04:42:16.510Z,104146.00
2019-02-25T04:43:51.609Z,104136.00
2019-02-25T04:45:26.709Z,104139.00
2019-02-25T04:47:01.822Z,104143.00
2019-02-25T04:48:36.924Z,104142.00
2019-02-25T04:50:13.884Z,104153.00
2019-02-25T04:51:48.990Z,104148.00
2019-02-25T04:53:24.134Z,104147.00
2019-02-25T04:54:59.239Z,104140.00
2019-02-25T04:56:34.343Z,104146.00
2019-02-25T04:58:09.701Z,104149.00
2019-02-25T04:59:44.803Z,104150.00
2019-02-25T05:01:20.248Z,104156.00
2019-02-25T05:02:55.641Z,104163.00
2019-02-25T05:04:30.755Z,104161.00
2019-02-25T05:06:05.848Z,104162.00
2019-02-25T05:07:40.971Z,104162.00
2019-02-25T05:09:16.078Z,104160.00
2019-02-25T05:10:51.182Z,104155.00
2019-02-25T05:12:26.290Z,104162.00
2019-02-25T05:14:01.714Z,104160.00
2019-02-25T05:15:37.387Z,104165.00
2019-02-25T05:17:12.774Z,104159.00
2019-02-25T05:18:47.893Z,104158.00
2019-02-25T05:20:22.986Z,104156.00
2019-02-25T05:21:59.069Z,104154.00
2019-02-25T05:23:34.202Z,104158.00
2019-02-25T05:25:11.987Z,104152.00
2019-02-25T05:26:47.087Z,104156.00
2019-02-25T05:28:22.192Z,104148.00
2019-02-25T05:29:57.303Z,104145.00
2019-02-25T05:31:32.411Z,104140.00
2019-02-25T05:33:07.533Z,104137.00
2019-02-25T05:34:42.690Z,104134.00
2019-02-25T05:36:17.776Z,104144.00
2019-02-25T05:37:52.900Z,104130.00
2019-02-25T05:39:27.996Z,104136.00
2019-02-25T05:41:03.131Z,104130.00
2019-02-25T05:42:38.236Z,104124.00
2019-02-25T05:44:13.359Z,104128.00
2019-02-25T05:45:48.470Z,104119.00
2019-02-25T05:47:23.582Z,104115.00
2019-02-25T05:48:58.726Z,104096.00
2019-02-25T05:50:33.842Z,104101.00
2019-02-25T05:52:08.937Z,104109.00
2019-02-25T05:53:44.072Z,104106.00
2019-02-25T05:55:19.488Z,104114.00
2019-02-25T05:56:54.574Z,104111.00
2019-02-25T05:58:29.682Z,104109.00
2019-02-25T06:00:09.285Z,104114.00
2019-02-25T06:01:44.396Z,104112.00
2019-02-25T06:03:19.791Z,104112.00
2019-02-25T06:04:54.922Z,104115.00
2019-02-25T06:06:30.014Z,104130.00
2019-02-25T06:08:05.206Z,104136.00
2019-02-25T06:09:40.321Z,104139.00
2019-02-25T06:11:15.417Z,104138.00
2019-02-25T06:12:50.512Z,104139.00
2019-02-25T06:14:36.394Z,104146.00
2019-02-25T06:16:11.963Z,104148.00
2019-02-25T06:17:47.071Z,104155.00
2019-02-25T06:19:22.191Z,104141.00
2019-02-25T06:20:57.293Z,104157.00
2019-02-25T06:22:32.396Z,104158.00
2019-02-25T06:24:07.512Z,104163.00
2019-02-25T06:25:42.612Z,104167.00
2019-02-25T06:27:17.719Z,104168.00
2019-02-25T06:28:53.892Z,104170.00
2019-02-25T06:30:29.325Z,104165.00
2019-02-25T06:32:04.431Z,104178.00
2019-02-25T06:33:39.527Z,104172.00
2019-02-25T06:35:14.702Z,104173.00
2019-02-25T06:36:49.804Z,104171.00
2019-02-25T06:38:24.907Z,104178.00
2019-02-25T06:40:00.017Z,104187.00
2019-02-25T06:41:35.123Z,104178.00
2019-02-25T06:43:10.570Z,104190.00
2019-02-25T06:44:45.682Z,104186.00
2019-02-25T06:46:20.789Z,104182.00
2019-02-25T06:47:55.891Z,104179.00
2019-02-25T06:49:30.995Z,104186.00
2019-02-25T06:51:06.089Z,104193.00
2019-02-25T06:52:41.199Z,104182.00
2019-02-25T06:54:16.320Z,104190.00
2019-02-25T06:55:51.431Z,104179.00
2019-02-25T06:57:26.848Z,104185.00
2019-02-25T06:59:01.971Z,104186.00
2019-02-25T07:00:37.070Z,104190.00
2019-02-25T07:02:12.172Z,104191.00
2019-02-25T07:03:50.568Z,104195.00
2019-02-25T07:05:42.666Z,104193.00
2019-02-25T07:07:19.419Z,104190.00
2019-02-25T07:09:02.120Z,104201.00
2019-02-25T07:10:46.674Z,104196.00
2019-02-25T07:12:23.431Z,104205.00
2019-02-25T07:14:06.200Z,104200.00
2019-02-25T07:15:59.199Z,104203.00
2019-02-25T07:17:44.960Z,104207.00
2019-02-25T07:19:35.014Z,104202.00
2019-02-25T07:21:23.771Z,104215.00
2019-02-25T07:23:03.556Z,104215.00
2019-02-25T07:24:41.256Z,104215.00
2019-02-25T07:26:21.032Z,104212.00
2019-02-25T07:27:57.790Z,104211.00
2019-02-25T07:29:34.542Z,104198.00
2019-02-25T07:31:14.229Z,104190.00
2019-02-25T07:33:05.626Z,104207.00
2019-02-25T07:34:58.641Z,104206.00
2019-02-25T07:36:50.370Z,104206.00
2019-02-25T07:38:38.985Z,104205.00
2019-02-25T07:40:26.464Z,104201.00
2019-02-25T07:42:03.213Z,104208.00
2019-02-25T07:43:56.074Z,104204.00
2019-02-25T07:45:32.836Z,104206.00
2019-02-25T07:47:15.485Z,104201.00
2019-02-25T07:48:54.905Z,104212.00
2019-02-25T07:50:47.596Z,104222.00
2019-02-25T07:52:24.760Z,104226.00
2019-02-25T07:54:01.894Z,104226.00
2019-02-25T07:55:38.663Z,104217.00
2019-02-25T07:57:21.397Z,104227.00
2019-02-25T07:58:58.165Z,104226.00
2019-02-25T08:00:34.930Z,104231.00
2019-02-25T08:02:11.687Z,104234.00
2019-02-25T08:03:48.458Z,104238.00
2019-02-25T08:05:25.225Z,104227.00
2019-02-25T08:07:05.954Z,104229.00
2019-02-25T08:08:43.087Z,104231.00
2019-02-25T08:10:37.956Z,104233.00
2019-02-25T08:12:17.843Z,104236.00
2019-02-25T08:13:55.116Z,104242.00
2019-02-25T08:15:41.182Z,104245.00
2019-02-25T08:17:17.959Z,104240.00
2019-02-25T08:18:59.132Z,104243.00
2019-02-25T08:20:35.893Z,104245.00
2019-02-25T08:22:13.636Z,104254.00
2019-02-25T08:23:59.249Z,104261.00
2019-02-25T08:25:45.100Z,104260.00
2019-02-25T08:27:36.967Z,104257.00
2019-02-25T08:29:13.730Z,104264.00
2019-02-25T08:31:02.262Z,104261.00
2019-02-25T08:32:41.979Z,104268.00
2019-02-25T08:34:19.110Z,104263.00
2019-02-25T08:36:04.331Z,104260.00
2019-02-25T08:37:54.913Z,104274.00
2019-02-25T08:39:39.234Z,104275.00
2019-02-25T08:41:16.158Z,104276.00
2019-02-25T08:42:51.563Z,104273.00
2019-02-25T08:44:28.328Z,104272.00
2019-02-25T08:46:20.292Z,104275.00
2019-02-25T08:48:02.916Z,104269.00
2019-02-25T08:49:45.697Z,104279.00
2019-02-25T08:51:21.075Z,104277.00
2019-02-25T08:52:56.203Z,104279.00
2019-02-25T08:54:31.606Z,104279.00
2019-02-25T08:56:06.738Z,104277.00
2019-02-25T08:57:42.827Z,104284.00
2019-02-25T08:59:18.222Z,104284.00
2019-02-25T09:00:53.346Z,104285.00
2019-02-25T09:02:28.462Z,104290.00
2019-02-25T09:04:03.590Z,104292.00
2019-02-25T09:05:38.727Z,104284.00
2019-02-25T09:07:13.850Z,104273.00
2019-02-25T09:08:48.969Z,104282.00
2019-02-25T09:10:24.099Z,104283.00
2019-02-25T09:12:00.293Z,104286.00
2019-02-25T09:13:35.428Z,104290.00
2019-02-25T09:15:13.957Z,104288.00
2019-02-25T09:16:49.087Z,104288.00
2019-02-25T09:18:24.206Z,104291.00
2019-02-25T09:19:59.326Z,104296.00
2019-02-25T09:21:34.456Z,104293.00
2019-02-25T09:23:09.573Z,104299.00
2019-02-25T09:24:45.003Z,104293.00
2019-02-25T09:26:20.141Z,104288.00
2019-02-25T09:27:55.269Z,104301.00
2019-02-25T09:29:30.394Z,104297.00
2019-02-25T09:31:05.808Z,104293.00
2019-02-25T09:32:41.934Z,104299.00
2019-02-25T09:34:17.057Z,104313.00
2019-02-25T09:35:52.186Z,104310.00
2019-02-25T09:37:27.942Z,104304.00
2019-02-25T09:39:03.064Z,104312.00
2019-02-25T09:40:39.361Z,104304.00
2019-02-25T09:42:14.475Z,104310.00
2019-02-25T09:43:49.591Z,104313.00
2019-02-25T09:45:24.713Z,104313.00
2019-02-25T09:46:59.844Z,104316.00
2019-02-25T09:48:35.243Z,104320.00
2019-02-25T09:50:14.337Z,104317.00
2019-02-25T09:51:49.468Z,104322.00
2019-02-25T09:53:24.591Z,104317.00
2019-02-25T09:54:59.716Z,104316.00
2019-02-25T09:56:34.840Z,104317.00
2019-02-25T09:58:09.953Z,104318.00
2019-02-25T09:59:45.064Z,104320.00
2019-02-25T10:01:20.563Z,104324.00
2019-02-25T10:02:55.681Z,104322.00
2019-02-25T10:04:30.802Z,104336.00
2019-02-25T10:06:05.948Z,104330.00
2019-02-25T10:07:41.062Z,104330.00
2019-02-25T10:09:16.179Z,104325.00
2019-02-25T10:10:51.754Z,104320.00
2019-02-25T10:12:26.880Z,104324.00
2019-02-25T10:14:02.352Z,104328.00
2019-02-25T10:15:37.765Z,104317.00
2019-02-25T10:17:12.892Z,104317.00
2019-02-25T10:18:47.995Z,104321.00
2019-02-25T10:20:23.109Z,104315.00
2019-02-25T10:22:00.333Z,104321.00
2019-02-25T10:23:35.448Z,104316.00
2019-02-25T10:25:11.686Z,104315.00
2019-02-25T10:26:46.814Z,104316.00
2019-02-25T10:28:21.928Z,104326.00
2019-02-25T10:29:57.056Z,104321.00
2019-02-25T10:31:32.179Z,104329.00
2019-02-25T10:33:07.286Z,104330.00
2019-02-25T10:34:42.413Z,104322.00
2019-02-25T10:36:17.530Z,104325.00
2019-02-25T10:37:52.652Z,104322.00
2019-02-25T10:39:27.779Z,104325.00
2019-02-25T10:41:02.910Z,104323.00
2019-02-25T10:42:38.020Z,104327.00
2019-02-25T10:44:13.140Z,104316.00
2019-02-25T10:45:48.261Z,104312.00
2019-02-25T10:47:23.394Z,104315.00
2019-02-25T10:48:59.199Z,104305.00
2019-02-25T10:50:36.034Z,104309.00
2019-02-25T10:52:12.882Z,104306.00
2019-02-25T10:53:49.952Z,104308.00
2019-02-25T10:55:53.056Z,104308.00
2019-02-25T10:57:29.203Z,104305.00
2019-02-25T10:59:06.154Z,104311.00
2019-02-25T11:00:43.675Z,104302.00
2019-02-25T11:02:19.518Z,104294.00
2019-02-25T11:03:54.662Z,104300.00
2019-02-25T11:05:30.579Z,104288.00
2019-02-25T11:07:07.830Z,104288.00
2019-02-25T11:08:45.769Z,104287.00
2019-02-25T11:10:22.649Z,104290.00
2019-02-25T11:12:00.137Z,104287.00
2019-02-25T11:13:36.703Z,104291.00
2019-02-25T11:15:13.836Z,104290.00
2019-02-25T11:16:50.469Z,104287.00
2019-02-25T11:18:28.331Z,104287.00
2019-02-25T11:20:05.706Z,104285.00
2019-02-25T11:21:42.170Z,104281.00
2019-02-25T11:23:19.407Z,104274.00
2019-02-25T11:24:55.547Z,104270.00
2019-02-25T11:26:32.831Z,104267.00
2019-02-25T11:28:11.214Z,104254.00
2019-02-25T11:29:46.217Z,104253.00
2019-02-25T11:31:24.548Z,104245.00
2019-02-25T11:33:00.029Z,104238.00
2019-02-25T11:34:37.666Z,104236.00
2019-02-25T11:36:15.410Z,104240.00
2019-02-25T11:37:52.593Z,104220.00
2019-02-25T11:39:30.123Z,104222.00
2019-02-25T11:41:07.161Z,104215.00
2019-02-25T11:42:43.114Z,104208.00
2019-02-25T11:44:19.029Z,104203.00
2019-02-25T11:45:55.145Z,104203.00
2019-02-25T11:47:30.306Z,104196.00
2019-02-25T11:49:05.404Z,104201.00
2019-02-25T11:50:40.528Z,104197.00
2019-02-25T11:52:15.657Z,104193.00
2019-02-25T11:53:50.783Z,104185.00
2019-02-25T11:55:25.906Z,104182.00
2019-02-25T11:57:01.038Z,104183.00
2019-02-25T11:58:36.147Z,104177.00
2019-02-25T12:00:22.979Z,104174.00
2019-02-25T12:01:58.111Z,104170.00
2019-02-25T12:03:33.561Z,104161.00
2019-02-25T12:05:10.798Z,104161.00
2019-02-25T12:06:45.912Z,104166.00
2019-02-25T12:08:21.023Z,104155.00
2019-02-25T12:09:56.134Z,104144.00
2019-02-25T12:11:31.262Z,104144.00
2019-02-25T12:13:06.427Z,104140.00
2019-02-25T12:14:41.549Z,104146.00
2019-02-25T12:16:16.734Z,104139.00
2019-02-25T12:17:52.188Z,104141.00
2019-02-25T12:19:27.300Z,104141.00
2019-02-25T12:21:02.748Z,104141.00
2019-02-25T12:22:37.880Z,104144.00
2019-02-25T12:24:12.995Z,104150.00
2019-02-25T12:25:48.456Z,104141.00
2019-02-25T12:27:23.586Z,104141.00
2019-02-25T12:28:58.691Z,104140.00
2019-02-25T12:30:33.802Z,104141.00
2019-02-25T12:32:08.922Z,104143.00
2019-02-25T12:33:44.041Z,104138.00
2019-02-25T12:35:19.162Z,104131.00
2019-02-25T12:36:54.560Z,104128.00
2019-02-25T12:38:29.677Z,104126.00
2019-02-25T12:40:08.663Z,104117.00
2019-02-25T12:41:43.782Z,104111.00
2019-02-25T12:43:18.894Z,104107.00
2019-02-25T12:44:54.021Z,104100.00
2019-02-25T12:46:29.433Z,104099.00
2019-02-25T12:48:04.869Z,104103.00
2019-02-25T12:49:39.991Z,104099.00
2019-02-25T12:51:15.117Z,104087.00
2019-02-25T12:52:50.569Z,104089.00
2019-02-25T12:54:26.004Z,104074.00
2019-02-25T12:56:01.113Z,104080.00
2019-02-25T12:57:37.364Z,104084.00
2019-02-25T12:59:13.555Z,104082.00
2019-02-25T13:00:48.667Z,104071.00
2019-02-25T13:02:23.797Z,104081.00
2019-02-25T13:03:58.900Z,104076.00
2019-02-25T13:05:34.025Z,104075.00
2019-02-25T13:07:09.154Z,104066.00
2019-02-25T13:08:44.537Z,104062.00
2019-02-25T13:10:19.826Z,104069.00
2019-02-25T13:11:54.942Z,104067.00
2019-02-25T13:13:30.437Z,104062.00
2019-02-25T13:15:13.285Z,104059.00
2019-02-25T13:16:47.011Z,104062.00
2019-02-25T13:18:22.138Z,104063.00
2019-02-25T13:19:57.250Z,104059.00
2019-02-25T13:21:32.363Z,104062.00
2019-02-25T13:23:07.761Z,104056.00
2019-02-25T13:24:42.886Z,104062.00
2019-02-25T13:26:17.999Z,104061.00
2019-02-25T13:27:54.405Z,104059.00
2019-02-25T13:29:29.947Z,104054.00
2019-02-25T13:31:05.648Z,104042.00
2019-02-25T13:32:41.487Z,104052.00
2019-02-25T13:34:16.589Z,104045.00
2019-02-25T13:35:51.699Z,104037.00
2019-02-25T13:37:26.820Z,104042.00
2019-02-25T13:39:01.932Z,104023.00
2019-02-25T13:40:39.802Z,104024.00
2019-02-25T13:42:14.927Z,104018.00
2019-02-25T13:43:50.047Z,104022.00
2019-02-25T13:45:25.446Z,104010.00
2019-02-25T13:47:00.554Z,104011.00
2019-02-25T13:48:35.770Z,104012.00
2019-02-25T13:50:14.129Z,104016.00
2019-02-25T13:51:49.246Z,104017.00
2019-02-25T13:53:24.366Z,104006.00
2019-02-25T13:54:59.472Z,104009.00
2019-02-25T13:56:34.596Z,104002.00
2019-02-25T13:58:10.390Z,103995.00
2019-02-25T13:59:46.474Z,103996.00
2019-02-25T14:01:21.587Z,103989.00
2019-02-25T14:02:56.900Z,103993.00
2019-02-25T14:04:32.014Z,103985.00
2019-02-25T14:06:07.134Z,103991.00
2019-02-25T14:07:42.253Z,103984.00
2019-02-25T14:09:17.369Z,103979.00
2019-02-25T14:10:54.114Z,103980.00
2019-02-25T14:12:29.230Z,103963.00
2019-02-25T14:14:04.363Z,103965.00
2019-02-25T14:15:39.477Z,103966.00
2019-02-25T14:17:14.596Z,103966.00
2019-02-25T14:18:50.122Z,103966.00
2019-02-25T14:20:26.459Z,103965.00
2019-02-25T14:22:01.569Z,103972.00
2019-02-25T14:23:38.260Z,103969.00
2019-02-25T14:25:19.813Z,103972.00
2019-02-25T14:26:55.105Z,103969.00
2019-02-25T14:28:30.498Z,103967.00
2019-02-25T14:30:10.455Z,103973.00
2019-02-25T14:31:45.847Z,103967.00
2019-02-25T14:33:23.467Z,103973.00
2019-02-25T14:34:58.867Z,103976.00
2019-02-25T14:36:34.254Z,103978.00
2019-02-25T14:38:17.336Z,103980.00
2019-02-25T14:39:53.726Z,103981.00
2019-02-25T14:41:27.076Z,103978.00
2019-02-25T14:43:04.105Z,103991.00
2019-02-25T14:44:41.256Z,104001.00
2019-02-25T14:46:17.341Z,103993.00
2019-02-25T14:47:57.504Z,103996.00
2019-02-25T14:49:30.145Z,103993.00
2019-02-25T14:51:08.736Z,104000.00
2019-02-25T14:52:43.432Z,103998.00
2019-02-25T14:54:18.562Z,103994.00
2019-02-25T14:55:56.005Z,104003.00
2019-02-25T14:57:30.868Z,104001.00
2019-02-25T14:59:08.235Z,104003.00
2019-02-25T15:00:44.184Z,103986.00
2019-02-25T15:02:19.302Z,103989.00
2019-02-25T15:03:55.973Z,103992.00
2019-02-25T15:05:31.507Z,103988.00
2019-02-25T15:07:08.614Z,103985.00
2019-02-25T15:08:44.308Z,103980.00
2019-02-25T15:10:19.422Z,103985.00
2019-02-25T15:11:55.893Z,103979.00
2019-02-25T15:13:32.673Z,103981.00
2019-02-25T15:15:14.239Z,103989.00
2019-02-25T15:16:49.353Z,103980.00
2019-02-25T15:18:25.271Z,103985.00
2019-02-25T15:20:01.382Z,103991.00
2019-02-25T15:21:37.560Z,103975.00
2019-02-25T15:23:16.536Z,103971.00
2019-02-25T15:24:50.414Z,103963.00
2019-02-25T15:26:27.797Z,103975.00
2019-02-25T15:28:07.086Z,103964.00
2019-02-25T15:29:42.245Z,103962.00
2019-02-25T15:31:18.693Z,103962.00
2019-02-25T15:32:56.941Z,103958.00
2019-02-25T15:34:30.965Z,103965.00
2019-02-25T15:36:06.085Z,103964.00
2019-02-25T15:37:44.452Z,103964.00
2019-02-25T15:39:18.201Z,103960.00
2019-02-25T15:40:55.867Z,103966.00
2019-02-25T15:42:32.303Z,103963.00
2019-02-25T15:44:08.961Z,103954.00
2019-02-25T15:45:44.646Z,103964.00
2019-02-25T15:47:20.070Z,103951.00
2019-02-25T15:48:55.205Z,103958.00
2019-02-25T15:50:30.389Z,103956.00
2019-02-25T15:52:05.506Z,103953.00
2019-02-25T15:53:42.412Z,103950.00
2019-02-25T15:55:19.529Z,103948.00
2019-02-25T15:56:54.583Z,103953.00
2019-02-25T15:58:29.707Z,103939.00
2019-02-25T16:00:10.414Z,103948.00
2019-02-25T16:01:45.965Z,103945.00
2019-02-25T16:03:21.264Z,103941.00
2019-02-25T16:04:57.355Z,103945.00
2019-02-25T16:06:35.488Z,103943.00
2019-02-25T16:08:11.072Z,103949.00
2019-02-25T16:09:47.659Z,103953.00
2019-02-25T16:11:25.710Z,103960.00
2019-02-25T16:12:59.936Z,103959.00
2019-02-25T16:14:36.420Z,103951.00
2019-02-25T16:16:11.776Z,103955.00
2019-02-25T16:17:49.634Z,103958.00
2019-02-25T16:19:32.951Z,103952.00
2019-02-25T16:21:02.578Z,103947.00
2019-02-25T16:22:39.070Z,103938.00
2019-02-25T16:24:16.446Z,103956.00
2019-02-25T16:25:53.051Z,103951.00
2019-02-25T16:27:28.409Z,103948.00
2019-02-25T16:29:06.023Z,103948.00
2019-02-25T16:30:42.093Z,103959.00
2019-02-25T16:32:19.272Z,103957.00
2019-02-25T16:33:55.996Z,103961.00
2019-02-25T16:35:32.001Z,103954.00
2019-02-25T16:37:07.117Z,103962.00
2019-02-25T16:38:42.235Z,103962.00
2019-02-25T16:40:24.448Z,103958.00
2019-02-25T16:41:58.517Z,103959.00
2019-02-25T16:43:33.637Z,103958.00
2019-02-25T16:45:32.385Z,103958.00
2019-02-25T16:47:03.788Z,103962.00
2019-02-25T16:48:38.907Z,103960.00
2019-02-25T16:50:16.470Z,103953.00
2019-02-25T16:51:53.190Z,103966.00
2019-02-25T16:53:28.617Z,103969.00
2019-02-25T16:55:05.277Z,103963.00
2019-02-25T16:56:40.395Z,103966.00
2019-02-25T16:58:15.538Z,103971.00
2019-02-25T16:59:53.339Z,103969.00
2019-02-25T17:01:29.739Z,103977.00
2019-02-25T17:03:06.557Z,103970.00
2019-02-25T17:04:41.165Z,103971.00
2019-02-25T17:06:16.283Z,103969.00
2019-02-25T17:07:51.402Z,103972.00
2019-02-25T17:09:28.180Z,103973.00
2019-02-25T17:11:03.291Z,103964.00
2019-02-25T17:12:38.754Z,103967.00
2019-02-25T17:14:14.969Z,103962.00
2019-02-25T17:15:50.772Z,103966.00
2019-02-25T17:17:25.891Z,103969.00
2019-02-25T17:19:01.359Z,103957.00
2019-02-25T17:20:36.597Z,103965.00
2019-02-25T17:22:11.697Z,103967.00
2019-02-25T17:23:46.819Z,103958.00
2019-02-25T17:25:22.131Z,103960.00
2019-02-25T17:26:57.231Z,103957.00
2019-02-25T17:28:32.608Z,103965.00
2019-02-25T17:30:15.735Z,103958.00
2019-02-25T17:31:52.827Z,103961.00
2019-02-25T17:33:30.395Z,103963.00
2019-02-25T17:35:08.819Z,103957.00
2019-02-25T17:36:44.859Z,103950.00
2019-02-25T17:38:22.999Z,103947.00
2019-02-25T17:40:02.577Z,103948.00
2019-02-25T17:41:36.172Z,103943.00
2019-02-25T17:43:14.004Z,103949.00
2019-02-25T17:44:48.982Z,103944.00
2019-02-25T17:46:26.378Z,103940.00
2019-02-25T17:48:03.421Z,103942.00
2019-02-25T17:49:38.379Z,103945.00
2019-02-25T17:51:16.257Z,103946.00
2019-02-25T17:52:51.614Z,103945.00
2019-02-25T17:54:26.747Z,103939.00
2019-02-25T17:56:01.856Z,103947.00
2019-02-25T17:57:37.429Z,103936.00
2019-02-25T17:59:12.657Z,103943.00
2019-02-25T18:00:47.789Z,103940.00
2019-02-25T18:02:23.725Z,103942.00
2019-02-25T18:03:59.944Z,103951.00
2019-02-25T18:05:38.037Z,103937.00
2019-02-25T18:07:12.829Z,103942.00
2019-02-25T18:08:47.949Z,103942.00
2019-02-25T18:10:25.002Z,103945.00
2019-02-25T18:12:00.417Z,103946.00
2019-02-25T18:13:37.031Z,103933.00
2019-02-25T18:15:30.072Z,103944.00
2019-02-25T18:17:06.137Z,103943.00
2019-02-25T18:18:43.280Z,103947.00
2019-02-25T18:20:18.917Z,103946.00
2019-02-25T18:21:54.022Z,103942.00